Who's Online

We have 6 guests online

Aviation WX

[source: ADDS]
METAR
KIAD 272352Z 33004KT 10SM FEW055 M03/M14 A3054 RMK AO2 SLP344 T10281139 11006 21028 53020 =
TAF
KIAD 272339Z 2800/0106 34008KT P6SM FEW070 FM280500 35005KT P6SM BKN150 FM282000 05004KT P6SM SCT150 =
SR / SS: 01:25 / 12:43 UTC (Washington-Dulles 2015-02-27)

JoomlaWatch Agent

Home Products and Services

This section describes Multilink Systems products and services

 

 

Under construction Please Standby